Nou producte orientat als practicants d'activitats de muntanya

Dades EMA Sant Sadurní d'Anoia

NOVETAT! Dades dels darrers dos anys disponibles
?
?
Resum diari
Dades diàries de l'estació meteorològica
Temperatura mitjana 6.6 °C
Temperatura màxima 15.2 °C 14:33 TU
Temperatura mínima 1.2 °C 7:19 TU
Humitat relativa mitjana 92%
Precipitació acumulada 0.0 mm
Ratxa màxima del vent (2 m) 11.2 km/h - 228º 16:45 TU
Irradiació solar global 9.0 MJ/m2

El tram horari està expressat en Temps Universal (TU). Cal sumar una hora en horari d'hivern i dues en horari d'estiu per passar a l'hora oficial.

Sant Sadurní d'Anoia

Metadades estació meteorol´gica
Municipi Sant Sadurní d'Anoia
Comarca Alt Penedès
Altitud 164 m
Data alta 11.04.2006
Estat actual Operativa
Dades de període
Període
TU
TM
°C
TX
°C
TN
°C
HRM
%
PPT
mm
VVM (2 m)
km/h
DVM (2 m)
graus
VVX (2 m)
km/h
RS
W/m2
00:00 - 00:30 3.1 3.3 2.8 100 0.0 1.4 354 5.4 0
00:30 - 01:00 2.7 2.8 2.6 100 0.0 0.7 353 4.7 0
01:00 - 01:30 2.4 2.9 1.9 100 0.0 0.7 4 4.7 0
01:30 - 02:00 2.9 3.6 1.9 100 0.0 2.2 318 10.4 0
02:00 - 02:30 3.7 4.0 3.5 100 0.0 3.6 320 10.4 0
02:30 - 03:00 2.5 3.7 1.8 100 0.0 1.4 68 9.0 0
03:00 - 03:30 2.1 2.4 1.8 100 0.0 1.4 88 5.4 0
03:30 - 04:00 2.1 2.9 1.8 100 0.0 1.8 355 4.3 0
04:00 - 04:30 2.0 2.3 1.7 100 0.0 1.8 349 5.8 0
04:30 - 05:00 1.9 2.5 1.5 100 0.0 1.8 350 5.8 0
05:00 - 05:30 2.1 2.5 1.8 100 0.0 1.8 324 6.5 0
05:30 - 06:00 2.3 2.6 1.6 100 0.0 4.0 326 9.0 0
06:00 - 06:30 2.5 2.6 2.1 100 0.0 2.9 312 7.6 0
06:30 - 07:00 2.0 2.7 1.4 100 0.0 1.1 13 7.6 0
07:00 - 07:30 1.3 1.5 1.2 100 0.0 0.4 335 2.9 13
07:30 - 08:00 1.9 2.4 1.4 100 0.0 0.7 26 2.9 68
08:00 - 08:30 2.7 3.6 2.2 100 0.0 0.7 24 3.6 137
08:30 - 09:00 4.2 4.7 3.4 100 0.0 2.2 112 6.1 224
09:00 - 09:30 5.8 6.6 4.7 100 0.0 1.8 125 5.0 294
09:30 - 10:00 7.2 8.0 6.3 96 0.0 1.4 107 4.7 346
10:00 - 10:30 8.5 9.2 7.6 91 0.0 2.2 76 6.8 388
10:30 - 11:00 9.7 10.1 9.3 86 0.0 2.5 109 6.8 424
11:00 - 11:30 10.4 11.2 9.9 83 0.0 2.5 105 7.2 448
11:30 - 12:00 11.3 11.7 10.9 79 0.0 2.9 93 7.2 454
12:00 - 12:30 12.0 12.8 11.0 73 0.0 1.8 125 5.8 445
12:30 - 13:00 13.2 13.6 12.7 66 0.0 3.2 199 8.6 420
13:00 - 13:30 13.6 14.0 13.3 63 0.0 5.0 223 9.0 367
13:30 - 14:00 14.2 14.6 13.8 61 0.0 4.3 209 9.7 330
14:00 - 14:30 14.4 15.0 14.1 59 0.0 4.7 218 11.2 272
14:30 - 15:00 14.8 15.2 14.6 59 0.0 2.5 222 6.8 202
15:00 - 15:30 14.4 14.8 14.1 61 0.0 4.3 230 9.0 130
15:30 - 16:00 13.6 14.0 12.9 66 0.0 4.3 236 8.6 50
16:00 - 16:30 12.5 12.9 11.9 77 0.0 5.4 217 10.4 5
16:30 - 17:00 11.4 11.9 11.1 89 0.0 6.8 224 11.2 0
17:00 - 17:30 10.8 11.0 10.6 94 0.0 6.1 229 10.4 0
17:30 - 18:00 10.2 10.5 9.7 97 0.0 3.2 288 7.2 0
18:00 - 18:30 9.2 9.7 8.0 100 0.0 3.2 318 8.6 0
18:30 - 19:00 7.8 8.0 7.5 100 0.0 5.8 325 10.8 0
19:00 - 19:30 7.1 8.0 6.2 100 0.0 3.6 318 6.8 0
19:30 - 20:00 6.1 6.8 5.2 100 0.0 1.1 326 4.3 0
20:00 - 20:30 5.1 5.2 4.9 100 0.0 1.4 334 3.6 0
20:30 - 21:00 4.7 5.1 4.3 100 0.0 2.9 322 4.7 0
21:00 - 21:30 4.7 5.0 4.4 100 0.0 1.8 316 4.0 0
21:30 - 22:00 4.6 5.5 3.5 100 0.0 2.5 311 5.8 0
22:00 - 22:30 4.1 4.7 3.7 100 0.0 0.7 265 3.6 0
22:30 - 23:00 4.2 4.4 4.0 100 0.0 1.1 60 6.5 0
23:00 - 23:30 4.1 4.4 3.7 100 0.0 1.4 72 5.0 0
23:30 - 00:00 3.3 3.9 2.9 100 0.0 1.8 322 4.7 0

Les dades en taronja només han passat un control de qualitat automàtic. Resta pendent la seva validació definitiva.